sensor_id;sensor_type;location;lat;lon;timestamp;P1;durP1;ratioP1;P2;durP2;ratioP2
23680;SDS011;62915;50.832;4.462;2023-08-20T00:01:28;14.25;;;2.95;;
23680;SDS011;62915;50.832;4.462;2023-08-20T00:03:54;14.40;;;3.22;;
23680;SDS011;62915;50.832;4.462;2023-08-20T00:06:20;11.50;;;2.90;;
23680;SDS011;62915;50.832;4.462;2023-08-20T00:08:47;11.50;;;2.70;;
23680;SDS011;62915;50.832;4.462;2023-08-20T00:11:13;11.20;;;2.63;;
23680;SDS011;62915;50.832;4.462;2023-08-20T00:13:40;12.20;;;2.85;;
23680;SDS011;62915;50.832;4.462;2023-08-20T00:16:06;13.70;;;3.08;;
23680;SDS011;62915;50.832;4.462;2023-08-20T00:18:32;16.10;;;3.78;;
23680;SDS011;62915;50.832;4.462;2023-08-20T00:20:58;13.85;;;2.90;;
23680;SDS011;62915;50.832;4.462;2023-08-20T00:23:25;9.10;;;3.05;;
23680;SDS011;62915;50.832;4.462;2023-08-20T00:25:51;9.75;;;2.60;;
23680;SDS011;62915;50.832;4.462;2023-08-20T00:28:19;7.40;;;2.80;;
23680;SDS011;62915;50.832;4.462;2023-08-20T00:30:46;9.50;;;3.40;;
23680;SDS011;62915;50.832;4.462;2023-08-20T00:33:14;11.35;;;3.97;;
23680;SDS011;62915;50.832;4.462;2023-08-20T00:35:39;11.45;;;4.10;;
23680;SDS011;62915;50.832;4.462;2023-08-20T00:38:05;17.17;;;3.65;;
23680;SDS011;62915;50.832;4.462;2023-08-20T00:40:31;10.93;;;3.42;;
23680;SDS011;62915;50.832;4.462;2023-08-20T00:42:57;12.77;;;2.78;;
23680;SDS011;62915;50.832;4.462;2023-08-20T00:45:23;12.35;;;3.38;;
23680;SDS011;62915;50.832;4.462;2023-08-20T00:47:49;10.52;;;2.67;;
23680;SDS011;62915;50.832;4.462;2023-08-20T00:50:16;8.25;;;2.40;;
23680;SDS011;62915;50.832;4.462;2023-08-20T00:52:43;11.50;;;3.00;;
23680;SDS011;62915;50.832;4.462;2023-08-20T00:55:10;12.93;;;3.70;;
23680;SDS011;62915;50.832;4.462;2023-08-20T00:57:37;15.48;;;3.25;;
23680;SDS011;62915;50.832;4.462;2023-08-20T01:00:03;10.75;;;2.70;;
23680;SDS011;62915;50.832;4.462;2023-08-20T01:02:32;13.68;;;3.25;;
23680;SDS011;62915;50.832;4.462;2023-08-20T01:04:59;13.00;;;2.72;;
23680;SDS011;62915;50.832;4.462;2023-08-20T01:07:30;8.35;;;2.80;;
23680;SDS011;62915;50.832;4.462;2023-08-20T01:12:45;15.88;;;2.70;;
23680;SDS011;62915;50.832;4.462;2023-08-20T01:15:14;7.00;;;2.13;;
23680;SDS011;62915;50.832;4.462;2023-08-20T01:17:40;8.52;;;2.53;;
23680;SDS011;62915;50.832;4.462;2023-08-20T01:20:09;14.20;;;3.28;;
23680;SDS011;62915;50.832;4.462;2023-08-20T01:28:25;8.52;;;2.85;;
23680;SDS011;62915;50.832;4.462;2023-08-20T01:33:19;15.32;;;3.28;;
23680;SDS011;62915;50.832;4.462;2023-08-20T01:35:45;10.93;;;2.88;;
23680;SDS011;62915;50.832;4.462;2023-08-20T01:38:11;8.63;;;2.72;;
23680;SDS011;62915;50.832;4.462;2023-08-20T01:40:37;8.20;;;2.40;;
23680;SDS011;62915;50.832;4.462;2023-08-20T01:43:02;10.32;;;3.17;;
23680;SDS011;62915;50.832;4.462;2023-08-20T01:45:28;11.65;;;3.55;;
23680;SDS011;62915;50.832;4.462;2023-08-20T01:47:54;9.38;;;3.22;;
23680;SDS011;62915;50.832;4.462;2023-08-20T01:50:21;7.82;;;2.70;;
23680;SDS011;62915;50.832;4.462;2023-08-20T01:52:46;12.40;;;3.90;;
23680;SDS011;62915;50.832;4.462;2023-08-20T01:55:12;8.45;;;2.72;;
23680;SDS011;62915;50.832;4.462;2023-08-20T01:57:38;10.55;;;2.85;;
23680;SDS011;62915;50.832;4.462;2023-08-20T02:00:05;9.40;;;2.55;;
23680;SDS011;62915;50.832;4.462;2023-08-20T02:02:32;11.35;;;3.05;;
23680;SDS011;62915;50.832;4.462;2023-08-20T02:04:59;11.88;;;3.40;;
23680;SDS011;62915;50.832;4.462;2023-08-20T02:07:25;11.45;;;3.63;;
23680;SDS011;62915;50.832;4.462;2023-08-20T02:09:51;11.23;;;3.25;;
23680;SDS011;62915;50.832;4.462;2023-08-20T02:12:18;11.27;;;2.80;;
23680;SDS011;62915;50.832;4.462;2023-08-20T02:14:44;7.45;;;2.50;;
23680;SDS011;62915;50.832;4.462;2023-08-20T02:17:10;10.65;;;3.47;;
23680;SDS011;62915;50.832;4.462;2023-08-20T02:19:38;14.63;;;2.78;;
23680;SDS011;62915;50.832;4.462;2023-08-20T02:22:04;11.13;;;3.65;;
23680;SDS011;62915;50.832;4.462;2023-08-20T02:24:30;7.00;;;2.17;;
23680;SDS011;62915;50.832;4.462;2023-08-20T02:26:56;37.97;;;3.97;;
23680;SDS011;62915;50.832;4.462;2023-08-20T02:29:22;13.65;;;2.97;;
23680;SDS011;62915;50.832;4.462;2023-08-20T02:31:47;9.02;;;2.55;;
23680;SDS011;62915;50.832;4.462;2023-08-20T02:34:13;17.70;;;3.30;;
23680;SDS011;62915;50.832;4.462;2023-08-20T02:36:39;7.22;;;2.63;;
23680;SDS011;62915;50.832;4.462;2023-08-20T02:39:04;9.93;;;3.03;;
23680;SDS011;62915;50.832;4.462;2023-08-20T02:41:33;6.40;;;2.50;;
23680;SDS011;62915;50.832;4.462;2023-08-20T02:44:00;6.93;;;2.63;;
23680;SDS011;62915;50.832;4.462;2023-08-20T02:46:25;10.57;;;2.47;;
23680;SDS011;62915;50.832;4.462;2023-08-20T02:48:51;11.50;;;3.33;;
23680;SDS011;62915;50.832;4.462;2023-08-20T02:51:17;8.90;;;2.90;;
23680;SDS011;62915;50.832;4.462;2023-08-20T02:53:42;5.88;;;2.58;;
23680;SDS011;62915;50.832;4.462;2023-08-20T02:56:08;9.95;;;3.10;;
23680;SDS011;62915;50.832;4.462;2023-08-20T02:58:34;8.52;;;2.45;;
23680;SDS011;62915;50.832;4.462;2023-08-20T03:01:00;11.45;;;2.78;;
23680;SDS011;62915;50.832;4.462;2023-08-20T03:03:25;8.90;;;2.80;;
23680;SDS011;62915;50.832;4.462;2023-08-20T03:05:51;8.02;;;2.72;;
23680;SDS011;62915;50.832;4.462;2023-08-20T03:08:17;13.18;;;2.80;;
23680;SDS011;62915;50.832;4.462;2023-08-20T03:10:42;7.95;;;2.67;;
23680;SDS011;62915;50.832;4.462;2023-08-20T03:13:08;15.43;;;3.45;;
23680;SDS011;62915;50.832;4.462;2023-08-20T03:15:34;11.60;;;2.83;;
23680;SDS011;62915;50.832;4.462;2023-08-20T03:17:59;14.10;;;2.78;;
23680;SDS011;62915;50.832;4.462;2023-08-20T03:20:25;9.38;;;2.90;;
23680;SDS011;62915;50.832;4.462;2023-08-20T03:22:53;9.55;;;2.90;;
23680;SDS011;62915;50.832;4.462;2023-08-20T03:25:19;11.05;;;3.30;;
23680;SDS011;62915;50.832;4.462;2023-08-20T03:27:44;11.88;;;2.90;;
23680;SDS011;62915;50.832;4.462;2023-08-20T03:30:10;8.50;;;2.72;;
23680;SDS011;62915;50.832;4.462;2023-08-20T03:32:37;9.65;;;3.10;;
23680;SDS011;62915;50.832;4.462;2023-08-20T03:35:03;12.07;;;3.45;;
23680;SDS011;62915;50.832;4.462;2023-08-20T03:37:29;8.02;;;2.92;;
23680;SDS011;62915;50.832;4.462;2023-08-20T03:39:55;10.88;;;3.10;;
23680;SDS011;62915;50.832;4.462;2023-08-20T03:42:21;12.40;;;3.45;;
23680;SDS011;62915;50.832;4.462;2023-08-20T03:44:47;9.50;;;2.75;;
23680;SDS011;62915;50.832;4.462;2023-08-20T03:47:12;8.25;;;2.70;;
23680;SDS011;62915;50.832;4.462;2023-08-20T03:49:39;11.75;;;3.25;;
23680;SDS011;62915;50.832;4.462;2023-08-20T03:52:05;6.95;;;2.67;;
23680;SDS011;62915;50.832;4.462;2023-08-20T03:54:32;11.82;;;2.80;;
23680;SDS011;62915;50.832;4.462;2023-08-20T03:56:58;12.55;;;3.30;;
23680;SDS011;62915;50.832;4.462;2023-08-20T03:59:24;4.15;;;2.55;;
23680;SDS011;62915;50.832;4.462;2023-08-20T04:01:50;11.50;;;2.95;;
23680;SDS011;62915;50.832;4.462;2023-08-20T04:04:16;13.15;;;3.20;;
23680;SDS011;62915;50.832;4.462;2023-08-20T04:06:42;11.95;;;2.97;;
23680;SDS011;62915;50.832;4.462;2023-08-20T04:09:08;11.05;;;2.55;;
23680;SDS011;62915;50.832;4.462;2023-08-20T04:11:34;9.13;;;2.88;;
23680;SDS011;62915;50.832;4.462;2023-08-20T04:14:00;11.90;;;2.60;;
23680;SDS011;62915;50.832;4.462;2023-08-20T04:16:26;10.75;;;3.00;;
23680;SDS011;62915;50.832;4.462;2023-08-20T04:18:53;7.13;;;2.35;;
23680;SDS011;62915;50.832;4.462;2023-08-20T04:21:19;11.75;;;2.60;;
23680;SDS011;62915;50.832;4.462;2023-08-20T04:23:44;12.90;;;2.55;;
23680;SDS011;62915;50.832;4.462;2023-08-20T04:26:10;9.85;;;3.08;;
23680;SDS011;62915;50.832;4.462;2023-08-20T04:28:35;9.05;;;2.90;;
23680;SDS011;62915;50.832;4.462;2023-08-20T04:31:01;12.50;;;2.78;;
23680;SDS011;62915;50.832;4.462;2023-08-20T04:33:27;9.40;;;2.85;;
23680;SDS011;62915;50.832;4.462;2023-08-20T04:35:53;7.15;;;2.63;;
23680;SDS011;62915;50.832;4.462;2023-08-20T04:38:19;9.98;;;3.33;;
23680;SDS011;62915;50.832;4.462;2023-08-20T04:40:48;13.60;;;2.60;;
23680;SDS011;62915;50.832;4.462;2023-08-20T04:43:14;7.97;;;3.13;;
23680;SDS011;62915;50.832;4.462;2023-08-20T04:45:40;8.45;;;2.80;;
23680;SDS011;62915;50.832;4.462;2023-08-20T04:48:06;10.57;;;2.97;;
23680;SDS011;62915;50.832;4.462;2023-08-20T04:50:32;10.27;;;2.70;;
23680;SDS011;62915;50.832;4.462;2023-08-20T04:52:58;9.48;;;3.05;;
23680;SDS011;62915;50.832;4.462;2023-08-20T04:55:27;9.25;;;2.55;;
23680;SDS011;62915;50.832;4.462;2023-08-20T04:57:53;13.63;;;3.22;;
23680;SDS011;62915;50.832;4.462;2023-08-20T05:00:19;9.63;;;2.75;;
23680;SDS011;62915;50.832;4.462;2023-08-20T05:02:46;12.25;;;3.00;;
23680;SDS011;62915;50.832;4.462;2023-08-20T05:05:11;12.68;;;2.60;;
23680;SDS011;62915;50.832;4.462;2023-08-20T05:07:37;6.80;;;2.42;;
23680;SDS011;62915;50.832;4.462;2023-08-20T05:10:03;11.32;;;2.53;;
23680;SDS011;62915;50.832;4.462;2023-08-20T05:12:29;10.85;;;2.78;;
23680;SDS011;62915;50.832;4.462;2023-08-20T05:14:55;10.55;;;3.00;;
23680;SDS011;62915;50.832;4.462;2023-08-20T05:17:20;8.45;;;2.63;;
23680;SDS011;62915;50.832;4.462;2023-08-20T05:19:46;8.82;;;2.58;;
23680;SDS011;62915;50.832;4.462;2023-08-20T05:22:13;9.95;;;2.95;;
23680;SDS011;62915;50.832;4.462;2023-08-20T05:24:40;8.98;;;2.60;;
23680;SDS011;62915;50.832;4.462;2023-08-20T05:27:15;6.82;;;2.50;;
23680;SDS011;62915;50.832;4.462;2023-08-20T05:29:42;4.53;;;2.42;;
23680;SDS011;62915;50.832;4.462;2023-08-20T05:32:08;7.45;;;2.60;;
23680;SDS011;62915;50.832;4.462;2023-08-20T05:34:34;10.70;;;2.33;;
23680;SDS011;62915;50.832;4.462;2023-08-20T05:37:00;10.48;;;3.10;;
23680;SDS011;62915;50.832;4.462;2023-08-20T05:39:30;8.35;;;2.53;;
23680;SDS011;62915;50.832;4.462;2023-08-20T05:41:56;6.57;;;2.58;;
23680;SDS011;62915;50.832;4.462;2023-08-20T05:44:21;7.60;;;2.72;;
23680;SDS011;62915;50.832;4.462;2023-08-20T05:46:47;7.40;;;2.33;;
23680;SDS011;62915;50.832;4.462;2023-08-20T05:49:13;8.32;;;2.80;;
23680;SDS011;62915;50.832;4.462;2023-08-20T05:51:41;10.73;;;2.47;;
23680;SDS011;62915;50.832;4.462;2023-08-20T05:54:08;10.70;;;2.58;;
23680;SDS011;62915;50.832;4.462;2023-08-20T05:56:34;7.05;;;2.70;;
23680;SDS011;62915;50.832;4.462;2023-08-20T05:58:59;8.18;;;2.50;;
23680;SDS011;62915;50.832;4.462;2023-08-20T06:01:25;10.45;;;3.10;;
23680;SDS011;62915;50.832;4.462;2023-08-20T06:03:51;14.05;;;2.75;;
23680;SDS011;62915;50.832;4.462;2023-08-20T06:06:16;6.10;;;2.60;;
23680;SDS011;62915;50.832;4.462;2023-08-20T06:08:42;8.73;;;2.47;;
23680;SDS011;62915;50.832;4.462;2023-08-20T06:11:08;6.43;;;2.85;;
23680;SDS011;62915;50.832;4.462;2023-08-20T06:13:33;6.95;;;2.22;;
23680;SDS011;62915;50.832;4.462;2023-08-20T06:15:59;12.27;;;2.45;;
23680;SDS011;62915;50.832;4.462;2023-08-20T06:18:25;9.23;;;2.95;;
23680;SDS011;62915;50.832;4.462;2023-08-20T06:20:50;5.97;;;2.90;;
23680;SDS011;62915;50.832;4.462;2023-08-20T06:23:16;5.32;;;2.80;;
23680;SDS011;62915;50.832;4.462;2023-08-20T06:25:42;9.63;;;2.83;;
23680;SDS011;62915;50.832;4.462;2023-08-20T06:28:08;9.60;;;3.40;;
23680;SDS011;62915;50.832;4.462;2023-08-20T06:30:34;7.05;;;2.50;;
23680;SDS011;62915;50.832;4.462;2023-08-20T06:33:00;10.55;;;3.08;;
23680;SDS011;62915;50.832;4.462;2023-08-20T06:35:26;7.28;;;2.78;;
23680;SDS011;62915;50.832;4.462;2023-08-20T06:37:52;9.40;;;2.55;;
23680;SDS011;62915;50.832;4.462;2023-08-20T06:40:18;13.93;;;2.70;;
23680;SDS011;62915;50.832;4.462;2023-08-20T06:42:43;11.45;;;2.97;;
23680;SDS011;62915;50.832;4.462;2023-08-20T06:45:09;10.18;;;2.60;;
23680;SDS011;62915;50.832;4.462;2023-08-20T06:47:35;11.25;;;2.75;;
23680;SDS011;62915;50.832;4.462;2023-08-20T06:50:02;10.30;;;3.47;;
23680;SDS011;62915;50.832;4.462;2023-08-20T06:52:28;6.78;;;2.58;;
23680;SDS011;62915;50.832;4.462;2023-08-20T06:54:53;8.68;;;2.40;;
23680;SDS011;62915;50.832;4.462;2023-08-20T06:57:19;16.77;;;3.10;;
23680;SDS011;62915;50.832;4.462;2023-08-20T06:59:45;6.95;;;2.15;;
23680;SDS011;62915;50.832;4.462;2023-08-20T07:02:10;8.90;;;2.15;;
23680;SDS011;62915;50.832;4.462;2023-08-20T07:04:36;10.30;;;2.35;;
23680;SDS011;62915;50.832;4.462;2023-08-20T07:07:02;12.20;;;2.20;;
23680;SDS011;62915;50.832;4.462;2023-08-20T07:09:33;6.18;;;1.65;;
23680;SDS011;62915;50.832;4.462;2023-08-20T07:11:58;6.90;;;1.83;;
23680;SDS011;62915;50.832;4.462;2023-08-20T07:14:25;6.97;;;1.83;;
23680;SDS011;62915;50.832;4.462;2023-08-20T07:16:51;6.07;;;1.90;;
23680;SDS011;62915;50.832;4.462;2023-08-20T07:19:17;9.45;;;1.85;;
23680;SDS011;62915;50.832;4.462;2023-08-20T07:21:43;6.28;;;1.83;;
23680;SDS011;62915;50.832;4.462;2023-08-20T07:24:08;6.45;;;1.60;;
23680;SDS011;62915;50.832;4.462;2023-08-20T07:26:34;7.25;;;1.58;;
23680;SDS011;62915;50.832;4.462;2023-08-20T07:29:00;6.18;;;2.05;;
23680;SDS011;62915;50.832;4.462;2023-08-20T07:31:26;5.30;;;1.50;;
23680;SDS011;62915;50.832;4.462;2023-08-20T07:33:53;7.45;;;1.48;;
23680;SDS011;62915;50.832;4.462;2023-08-20T07:36:21;5.72;;;1.75;;
23680;SDS011;62915;50.832;4.462;2023-08-20T07:38:47;5.97;;;1.42;;
23680;SDS011;62915;50.832;4.462;2023-08-20T07:41:13;4.93;;;1.42;;
23680;SDS011;62915;50.832;4.462;2023-08-20T07:43:40;2.60;;;1.20;;
23680;SDS011;62915;50.832;4.462;2023-08-20T07:46:06;3.20;;;1.23;;
23680;SDS011;62915;50.832;4.462;2023-08-20T07:48:34;5.53;;;1.15;;
23680;SDS011;62915;50.832;4.462;2023-08-20T07:53:29;4.35;;;1.27;;
23680;SDS011;62915;50.832;4.462;2023-08-20T07:55:56;7.30;;;1.40;;
23680;SDS011;62915;50.832;4.462;2023-08-20T07:58:21;2.75;;;1.23;;
23680;SDS011;62915;50.832;4.462;2023-08-20T08:00:47;7.22;;;1.77;;
23680;SDS011;62915;50.832;4.462;2023-08-20T08:03:13;4.47;;;1.48;;
23680;SDS011;62915;50.832;4.462;2023-08-20T08:05:51;5.43;;;1.35;;
23680;SDS011;62915;50.832;4.462;2023-08-20T08:08:18;3.17;;;1.10;;
23680;SDS011;62915;50.832;4.462;2023-08-20T08:10:44;3.60;;;1.25;;
23680;SDS011;62915;50.832;4.462;2023-08-20T08:13:12;3.33;;;1.10;;
23680;SDS011;62915;50.832;4.462;2023-08-20T08:15:39;3.03;;;1.00;;
23680;SDS011;62915;50.832;4.462;2023-08-20T08:18:05;2.63;;;0.82;;
23680;SDS011;62915;50.832;4.462;2023-08-20T08:20:31;2.70;;;0.80;;
23680;SDS011;62915;50.832;4.462;2023-08-20T08:22:57;2.28;;;0.75;;
23680;SDS011;62915;50.832;4.462;2023-08-20T08:25:23;2.20;;;1.08;;
23680;SDS011;62915;50.832;4.462;2023-08-20T08:27:49;4.28;;;1.00;;
23680;SDS011;62915;50.832;4.462;2023-08-20T08:30:15;4.18;;;1.45;;
23680;SDS011;62915;50.832;4.462;2023-08-20T08:32:40;5.97;;;1.60;;
23680;SDS011;62915;50.832;4.462;2023-08-20T08:35:06;3.55;;;1.80;;
23680;SDS011;62915;50.832;4.462;2023-08-20T08:37:32;7.22;;;1.85;;
23680;SDS011;62915;50.832;4.462;2023-08-20T08:39:58;5.80;;;1.52;;
23680;SDS011;62915;50.832;4.462;2023-08-20T08:42:24;2.05;;;0.90;;
23680;SDS011;62915;50.832;4.462;2023-08-20T08:44:50;4.53;;;1.33;;
23680;SDS011;62915;50.832;4.462;2023-08-20T08:47:21;5.57;;;1.40;;
23680;SDS011;62915;50.832;4.462;2023-08-20T08:49:48;2.58;;;1.08;;
23680;SDS011;62915;50.832;4.462;2023-08-20T08:52:15;2.75;;;1.00;;
23680;SDS011;62915;50.832;4.462;2023-08-20T08:54:41;4.15;;;1.10;;
23680;SDS011;62915;50.832;4.462;2023-08-20T08:57:07;3.22;;;1.23;;
23680;SDS011;62915;50.832;4.462;2023-08-20T08:59:33;2.83;;;1.02;;
23680;SDS011;62915;50.832;4.462;2023-08-20T09:01:59;1.88;;;1.00;;
23680;SDS011;62915;50.832;4.462;2023-08-20T09:04:24;3.25;;;1.23;;
23680;SDS011;62915;50.832;4.462;2023-08-20T09:06:51;3.92;;;1.40;;
23680;SDS011;62915;50.832;4.462;2023-08-20T09:09:20;2.70;;;1.25;;
23680;SDS011;62915;50.832;4.462;2023-08-20T09:11:49;4.57;;;1.15;;
23680;SDS011;62915;50.832;4.462;2023-08-20T09:14:22;2.88;;;0.90;;
23680;SDS011;62915;50.832;4.462;2023-08-20T09:16:59;2.72;;;1.13;;
23680;SDS011;62915;50.832;4.462;2023-08-20T09:19:29;3.47;;;0.90;;
23680;SDS011;62915;50.832;4.462;2023-08-20T09:22:00;4.28;;;1.20;;
23680;SDS011;62915;50.832;4.462;2023-08-20T09:24:26;3.58;;;1.25;;
23680;SDS011;62915;50.832;4.462;2023-08-20T09:27:01;3.47;;;1.15;;
23680;SDS011;62915;50.832;4.462;2023-08-20T09:29:46;4.20;;;1.30;;
23680;SDS011;62915;50.832;4.462;2023-08-20T09:32:25;4.28;;;1.30;;
23680;SDS011;62915;50.832;4.462;2023-08-20T09:34:55;3.70;;;1.38;;
23680;SDS011;62915;50.832;4.462;2023-08-20T09:37:22;3.03;;;1.23;;
23680;SDS011;62915;50.832;4.462;2023-08-20T09:39:50;3.08;;;0.93;;
23680;SDS011;62915;50.832;4.462;2023-08-20T09:42:15;4.22;;;1.23;;
23680;SDS011;62915;50.832;4.462;2023-08-20T09:44:45;3.97;;;0.98;;
23680;SDS011;62915;50.832;4.462;2023-08-20T09:47:12;3.10;;;1.10;;
23680;SDS011;62915;50.832;4.462;2023-08-20T09:49:40;4.07;;;1.42;;
23680;SDS011;62915;50.832;4.462;2023-08-20T09:52:10;4.18;;;1.10;;
23680;SDS011;62915;50.832;4.462;2023-08-20T09:57:11;3.22;;;0.98;;
23680;SDS011;62915;50.832;4.462;2023-08-20T09:59:45;3.75;;;1.20;;
23680;SDS011;62915;50.832;4.462;2023-08-20T10:02:13;4.80;;;1.38;;
23680;SDS011;62915;50.832;4.462;2023-08-20T10:04:40;5.22;;;1.08;;
23680;SDS011;62915;50.832;4.462;2023-08-20T10:07:09;2.50;;;1.20;;
23680;SDS011;62915;50.832;4.462;2023-08-20T10:09:37;3.78;;;1.27;;
23680;SDS011;62915;50.832;4.462;2023-08-20T10:12:04;2.60;;;1.13;;
23680;SDS011;62915;50.832;4.462;2023-08-20T10:14:30;2.35;;;0.90;;
23680;SDS011;62915;50.832;4.462;2023-08-20T10:16:56;5.25;;;1.00;;
23680;SDS011;62915;50.832;4.462;2023-08-20T10:19:23;2.92;;;0.93;;
23680;SDS011;62915;50.832;4.462;2023-08-20T10:21:52;3.58;;;1.00;;
23680;SDS011;62915;50.832;4.462;2023-08-20T10:24:18;3.22;;;1.13;;
23680;SDS011;62915;50.832;4.462;2023-08-20T10:26:47;3.55;;;1.20;;
23680;SDS011;62915;50.832;4.462;2023-08-20T10:29:35;5.03;;;1.05;;
23680;SDS011;62915;50.832;4.462;2023-08-20T10:32:09;5.60;;;1.50;;
23680;SDS011;62915;50.832;4.462;2023-08-20T10:34:36;3.20;;;1.23;;
23680;SDS011;62915;50.832;4.462;2023-08-20T10:37:10;3.40;;;1.30;;
23680;SDS011;62915;50.832;4.462;2023-08-20T10:39:39;4.80;;;1.23;;
23680;SDS011;62915;50.832;4.462;2023-08-20T10:47:36;4.78;;;1.30;;
23680;SDS011;62915;50.832;4.462;2023-08-20T10:50:17;3.78;;;1.10;;
23680;SDS011;62915;50.832;4.462;2023-08-20T10:52:47;4.60;;;1.75;;
23680;SDS011;62915;50.832;4.462;2023-08-20T10:55:14;4.05;;;1.38;;
23680;SDS011;62915;50.832;4.462;2023-08-20T10:57:41;2.97;;;1.23;;
23680;SDS011;62915;50.832;4.462;2023-08-20T11:00:07;6.20;;;1.70;;
23680;SDS011;62915;50.832;4.462;2023-08-20T11:02:40;5.40;;;1.50;;
23680;SDS011;62915;50.832;4.462;2023-08-20T11:05:20;6.88;;;1.52;;
23680;SDS011;62915;50.832;4.462;2023-08-20T11:07:49;4.70;;;1.38;;
23680;SDS011;62915;50.832;4.462;2023-08-20T11:10:15;4.53;;;1.65;;
23680;SDS011;62915;50.832;4.462;2023-08-20T11:12:42;3.63;;;1.10;;
23680;SDS011;62915;50.832;4.462;2023-08-20T11:15:11;2.05;;;1.23;;
23680;SDS011;62915;50.832;4.462;2023-08-20T11:17:41;5.38;;;1.40;;
23680;SDS011;62915;50.832;4.462;2023-08-20T11:20:08;4.93;;;1.95;;
23680;SDS011;62915;50.832;4.462;2023-08-20T11:22:36;5.15;;;1.67;;
23680;SDS011;62915;50.832;4.462;2023-08-20T11:25:03;4.70;;;1.80;;
23680;SDS011;62915;50.832;4.462;2023-08-20T11:27:29;8.15;;;1.77;;
23680;SDS011;62915;50.832;4.462;2023-08-20T11:29:55;5.15;;;1.20;;
23680;SDS011;62915;50.832;4.462;2023-08-20T11:32:23;4.65;;;1.70;;
23680;SDS011;62915;50.832;4.462;2023-08-20T11:34:49;3.80;;;1.40;;
23680;SDS011;62915;50.832;4.462;2023-08-20T11:37:20;5.47;;;1.58;;
23680;SDS011;62915;50.832;4.462;2023-08-20T11:39:47;5.20;;;1.65;;
23680;SDS011;62915;50.832;4.462;2023-08-20T11:42:14;6.03;;;1.52;;
23680;SDS011;62915;50.832;4.462;2023-08-20T11:44:44;3.70;;;1.30;;
23680;SDS011;62915;50.832;4.462;2023-08-20T11:47:15;4.72;;;1.60;;
23680;SDS011;62915;50.832;4.462;2023-08-20T11:49:41;4.32;;;1.35;;
23680;SDS011;62915;50.832;4.462;2023-08-20T11:52:07;3.60;;;1.40;;
23680;SDS011;62915;50.832;4.462;2023-08-20T11:54:34;4.55;;;1.55;;
23680;SDS011;62915;50.832;4.462;2023-08-20T11:57:05;7.15;;;1.70;;
23680;SDS011;62915;50.832;4.462;2023-08-20T11:59:32;3.65;;;1.58;;
23680;SDS011;62915;50.832;4.462;2023-08-20T12:01:59;3.75;;;1.70;;
23680;SDS011;62915;50.832;4.462;2023-08-20T12:04:27;4.63;;;1.27;;
23680;SDS011;62915;50.832;4.462;2023-08-20T12:07:01;5.38;;;1.52;;
23680;SDS011;62915;50.832;4.462;2023-08-20T12:09:33;5.20;;;2.08;;
23680;SDS011;62915;50.832;4.462;2023-08-20T12:12:00;4.85;;;1.77;;
23680;SDS011;62915;50.832;4.462;2023-08-20T12:14:27;4.07;;;1.27;;
23680;SDS011;62915;50.832;4.462;2023-08-20T12:16:54;6.82;;;1.88;;
23680;SDS011;62915;50.832;4.462;2023-08-20T12:19:20;4.18;;;1.40;;
23680;SDS011;62915;50.832;4.462;2023-08-20T12:21:47;6.22;;;1.85;;
23680;SDS011;62915;50.832;4.462;2023-08-20T12:24:14;4.70;;;1.85;;
23680;SDS011;62915;50.832;4.462;2023-08-20T12:26:40;3.53;;;1.67;;
23680;SDS011;62915;50.832;4.462;2023-08-20T12:29:06;4.18;;;1.55;;
23680;SDS011;62915;50.832;4.462;2023-08-20T12:31:32;5.00;;;2.08;;
23680;SDS011;62915;50.832;4.462;2023-08-20T12:33:59;6.03;;;1.67;;
23680;SDS011;62915;50.832;4.462;2023-08-20T12:36:25;4.88;;;1.50;;
23680;SDS011;62915;50.832;4.462;2023-08-20T12:38:51;6.00;;;1.67;;
23680;SDS011;62915;50.832;4.462;2023-08-20T12:41:18;4.65;;;1.80;;
23680;SDS011;62915;50.832;4.462;2023-08-20T12:43:44;5.28;;;1.95;;
23680;SDS011;62915;50.832;4.462;2023-08-20T12:46:10;7.32;;;2.22;;
23680;SDS011;62915;50.832;4.462;2023-08-20T12:48:37;3.70;;;1.50;;
23680;SDS011;62915;50.832;4.462;2023-08-20T12:51:03;3.05;;;1.60;;
23680;SDS011;62915;50.832;4.462;2023-08-20T12:53:28;3.58;;;1.77;;
23680;SDS011;62915;50.832;4.462;2023-08-20T12:55:54;5.90;;;2.17;;
23680;SDS011;62915;50.832;4.462;2023-08-20T12:58:20;5.75;;;1.92;;
23680;SDS011;62915;50.832;4.462;2023-08-20T13:00:46;5.68;;;1.67;;
23680;SDS011;62915;50.832;4.462;2023-08-20T13:03:12;6.68;;;1.63;;
23680;SDS011;62915;50.832;4.462;2023-08-20T13:05:38;8.70;;;1.80;;
23680;SDS011;62915;50.832;4.462;2023-08-20T13:08:04;4.97;;;1.80;;
23680;SDS011;62915;50.832;4.462;2023-08-20T13:10:31;4.80;;;1.48;;
23680;SDS011;62915;50.832;4.462;2023-08-20T13:12:58;3.85;;;1.40;;
23680;SDS011;62915;50.832;4.462;2023-08-20T13:15:26;7.30;;;1.98;;
23680;SDS011;62915;50.832;4.462;2023-08-20T13:17:52;5.15;;;1.80;;
23680;SDS011;62915;50.832;4.462;2023-08-20T13:20:19;5.63;;;1.88;;
23680;SDS011;62915;50.832;4.462;2023-08-20T13:22:49;6.30;;;1.80;;
23680;SDS011;62915;50.832;4.462;2023-08-20T13:25:16;4.07;;;1.85;;
23680;SDS011;62915;50.832;4.462;2023-08-20T13:27:43;5.05;;;1.90;;
23680;SDS011;62915;50.832;4.462;2023-08-20T13:30:09;5.28;;;1.80;;
23680;SDS011;62915;50.832;4.462;2023-08-20T13:32:35;4.70;;;1.70;;
23680;SDS011;62915;50.832;4.462;2023-08-20T13:35:02;3.95;;;1.58;;
23680;SDS011;62915;50.832;4.462;2023-08-20T13:37:31;6.38;;;1.60;;
23680;SDS011;62915;50.832;4.462;2023-08-20T13:39:57;5.03;;;1.90;;
23680;SDS011;62915;50.832;4.462;2023-08-20T13:42:23;6.78;;;1.92;;
23680;SDS011;62915;50.832;4.462;2023-08-20T13:44:49;3.63;;;1.73;;
23680;SDS011;62915;50.832;4.462;2023-08-20T13:47:15;7.40;;;2.20;;
23680;SDS011;62915;50.832;4.462;2023-08-20T13:49:40;5.30;;;1.60;;
23680;SDS011;62915;50.832;4.462;2023-08-20T13:52:06;8.35;;;1.98;;
23680;SDS011;62915;50.832;4.462;2023-08-20T13:54:32;4.20;;;1.98;;
23680;SDS011;62915;50.832;4.462;2023-08-20T13:56:58;4.65;;;1.75;;
23680;SDS011;62915;50.832;4.462;2023-08-20T13:59:24;4.38;;;1.98;;
23680;SDS011;62915;50.832;4.462;2023-08-20T14:01:50;4.90;;;1.52;;
23680;SDS011;62915;50.832;4.462;2023-08-20T14:04:16;7.53;;;1.90;;
23680;SDS011;62915;50.832;4.462;2023-08-20T14:06:41;4.20;;;1.77;;
23680;SDS011;62915;50.832;4.462;2023-08-20T14:09:08;5.82;;;1.92;;
23680;SDS011;62915;50.832;4.462;2023-08-20T14:11:34;4.95;;;1.65;;
23680;SDS011;62915;50.832;4.462;2023-08-20T14:13:59;4.40;;;1.65;;
23680;SDS011;62915;50.832;4.462;2023-08-20T14:16:25;3.67;;;1.55;;
23680;SDS011;62915;50.832;4.462;2023-08-20T14:18:51;3.78;;;1.88;;
23680;SDS011;62915;50.832;4.462;2023-08-20T14:21:17;4.00;;;1.48;;
23680;SDS011;62915;50.832;4.462;2023-08-20T14:23:42;5.07;;;1.70;;
23680;SDS011;62915;50.832;4.462;2023-08-20T14:26:08;3.80;;;1.40;;
23680;SDS011;62915;50.832;4.462;2023-08-20T14:28:34;5.50;;;1.80;;
23680;SDS011;62915;50.832;4.462;2023-08-20T14:31:03;3.75;;;1.90;;
23680;SDS011;62915;50.832;4.462;2023-08-20T14:33:30;5.00;;;1.58;;
23680;SDS011;62915;50.832;4.462;2023-08-20T14:35:57;5.82;;;1.92;;
23680;SDS011;62915;50.832;4.462;2023-08-20T14:38:23;5.38;;;2.00;;
23680;SDS011;62915;50.832;4.462;2023-08-20T14:40:48;7.63;;;2.17;;
23680;SDS011;62915;50.832;4.462;2023-08-20T14:43:15;5.38;;;1.80;;
23680;SDS011;62915;50.832;4.462;2023-08-20T14:45:41;5.38;;;1.83;;
23680;SDS011;62915;50.832;4.462;2023-08-20T14:48:07;4.78;;;1.63;;
23680;SDS011;62915;50.832;4.462;2023-08-20T14:50:32;4.22;;;1.60;;
23680;SDS011;62915;50.832;4.462;2023-08-20T14:52:58;4.13;;;1.85;;
23680;SDS011;62915;50.832;4.462;2023-08-20T14:55:24;5.57;;;1.85;;
23680;SDS011;62915;50.832;4.462;2023-08-20T14:57:50;2.95;;;1.50;;
23680;SDS011;62915;50.832;4.462;2023-08-20T15:00:16;4.38;;;1.83;;
23680;SDS011;62915;50.832;4.462;2023-08-20T15:02:45;7.75;;;1.92;;
23680;SDS011;62915;50.832;4.462;2023-08-20T15:05:12;5.72;;;1.98;;